createdAt,value
2019-02-20T00:01:24.118Z,99.90
2019-02-20T00:03:54.567Z,99.90
2019-02-20T00:06:24.918Z,99.90
2019-02-20T00:08:55.313Z,99.90
2019-02-20T00:11:29.020Z,99.90
2019-02-20T00:13:59.442Z,99.90
2019-02-20T00:16:29.766Z,99.90
2019-02-20T00:19:00.153Z,99.90
2019-02-20T00:21:30.526Z,99.90
2019-02-20T00:24:00.875Z,99.90
2019-02-20T00:26:31.226Z,99.90
2019-02-20T00:29:01.621Z,99.90
2019-02-20T00:31:31.989Z,99.90
2019-02-20T00:34:02.363Z,99.90
2019-02-20T00:36:32.718Z,99.90
2019-02-20T00:39:04.739Z,99.90
2019-02-20T00:41:36.466Z,99.90
2019-02-20T00:44:12.473Z,99.90
2019-02-20T00:46:44.471Z,99.90
2019-02-20T00:49:19.448Z,99.90
2019-02-20T00:51:51.448Z,99.90
2019-02-20T00:54:21.821Z,99.90
2019-02-20T00:56:52.170Z,99.90
2019-02-20T00:59:22.541Z,99.90
2019-02-20T01:01:52.899Z,99.90
2019-02-20T01:04:23.282Z,99.90
2019-02-20T01:06:53.633Z,99.90
2019-02-20T01:09:24.011Z,99.90
2019-02-20T01:11:54.438Z,99.90
2019-02-20T01:14:24.818Z,99.90
2019-02-20T01:16:55.245Z,99.90
2019-02-20T01:19:25.618Z,99.90
2019-02-20T01:21:55.971Z,99.90
2019-02-20T01:24:26.348Z,99.90
2019-02-20T01:26:56.699Z,99.90
2019-02-20T01:29:27.069Z,99.90
2019-02-20T01:31:57.422Z,99.90
2019-02-20T01:34:27.800Z,99.90
2019-02-20T01:36:58.163Z,99.90
2019-02-20T01:39:28.557Z,99.90
2019-02-20T01:41:58.910Z,99.90
2019-02-20T01:44:48.618Z,99.90
2019-02-20T01:47:18.977Z,99.90
2019-02-20T01:49:54.904Z,99.90
2019-02-20T01:52:26.228Z,99.90
2019-02-20T01:54:56.608Z,99.90
2019-02-20T01:57:26.986Z,99.90
2019-02-20T01:59:57.364Z,99.90
2019-02-20T02:02:27.859Z,99.90
2019-02-20T02:04:58.214Z,99.90
2019-02-20T02:07:28.568Z,99.90
2019-02-20T02:10:18.431Z,99.90
2019-02-20T02:12:48.780Z,99.90
2019-02-20T02:15:20.735Z,99.90
2019-02-20T02:17:51.201Z,99.90
2019-02-20T02:20:21.582Z,99.90
2019-02-20T02:22:51.946Z,99.90
2019-02-20T02:25:22.330Z,99.90
2019-02-20T02:27:52.695Z,99.90
2019-02-20T02:30:23.068Z,99.90
2019-02-20T02:32:53.423Z,99.90
2019-02-20T02:35:23.794Z,99.90
2019-02-20T02:37:54.153Z,99.90
2019-02-20T02:40:24.620Z,99.90
2019-02-20T02:42:54.980Z,99.90
2019-02-20T02:45:25.364Z,99.90
2019-02-20T02:47:55.723Z,99.90
2019-02-20T02:50:26.095Z,99.90
2019-02-20T02:52:56.456Z,99.90
2019-02-20T02:55:26.840Z,99.90
2019-02-20T02:57:57.194Z,99.90
2019-02-20T03:00:27.579Z,99.90
2019-02-20T03:02:57.937Z,99.90
2019-02-20T03:05:28.321Z,99.90
2019-02-20T03:07:58.781Z,99.90
2019-02-20T03:10:29.164Z,99.90
2019-02-20T03:12:59.517Z,99.90
2019-02-20T03:15:29.901Z,99.90
2019-02-20T03:18:01.228Z,99.90
2019-02-20T03:20:32.571Z,99.90
2019-02-20T03:23:02.943Z,99.90
2019-02-20T03:25:33.324Z,99.90
2019-02-20T03:28:03.680Z,99.90
2019-02-20T03:30:34.070Z,99.90
2019-02-20T03:33:04.457Z,99.90
2019-02-20T03:35:34.806Z,99.90
2019-02-20T03:38:05.368Z,99.90
2019-02-20T03:40:35.708Z,99.90
2019-02-20T03:43:06.070Z,99.90
2019-02-20T03:45:36.442Z,99.90
2019-02-20T03:48:06.802Z,99.90
2019-02-20T03:50:37.174Z,99.90
2019-02-20T03:53:07.530Z,99.90
2019-02-20T03:55:38.361Z,99.90
2019-02-20T03:58:08.706Z,99.90
2019-02-20T04:00:39.241Z,99.90
2019-02-20T04:03:09.601Z,99.90
2019-02-20T04:05:39.983Z,99.90
2019-02-20T04:08:10.341Z,99.90
2019-02-20T04:10:40.712Z,99.90
2019-02-20T04:13:11.099Z,99.90
2019-02-20T04:15:42.435Z,99.90
2019-02-20T04:18:12.819Z,99.90
2019-02-20T04:20:43.182Z,99.90
2019-02-20T04:23:13.571Z,99.90
2019-02-20T04:25:43.935Z,99.90
2019-02-20T04:28:14.394Z,99.90
2019-02-20T04:30:44.749Z,99.90
2019-02-20T04:33:15.133Z,99.90
2019-02-20T04:35:45.497Z,99.90
2019-02-20T04:38:15.873Z,99.90
2019-02-20T04:40:46.238Z,99.90
2019-02-20T04:43:16.614Z,99.90
2019-02-20T04:45:46.976Z,99.90
2019-02-20T04:48:17.348Z,99.90
2019-02-20T04:50:47.703Z,99.90
2019-02-20T04:53:18.086Z,99.90
2019-02-20T04:55:48.452Z,99.90
2019-02-20T04:58:23.466Z,99.90
2019-02-20T05:00:53.933Z,99.90
2019-02-20T05:03:24.324Z,99.90
2019-02-20T05:05:55.657Z,99.90
2019-02-20T05:08:26.082Z,99.90
2019-02-20T05:10:56.472Z,99.90
2019-02-20T05:13:26.815Z,99.90
2019-02-20T05:15:57.186Z,99.90
2019-02-20T05:18:27.614Z,99.90
2019-02-20T05:20:57.942Z,99.90
2019-02-20T05:23:28.325Z,99.90
2019-02-20T05:25:58.680Z,99.90
2019-02-20T05:28:32.059Z,99.90
2019-02-20T05:31:01.110Z,99.90
2019-02-20T05:33:31.492Z,99.90
2019-02-20T05:36:01.850Z,99.90
2019-02-20T05:38:32.234Z,99.90
2019-02-20T05:41:02.658Z,99.90
2019-02-20T05:43:33.049Z,99.90
2019-02-20T05:46:03.411Z,99.90
2019-02-20T05:48:33.799Z,99.90
2019-02-20T05:51:04.160Z,99.90
2019-02-20T05:53:34.595Z,99.90
2019-02-20T05:56:04.951Z,99.90
2019-02-20T05:58:35.326Z,99.90
2019-02-20T06:01:05.679Z,99.90
2019-02-20T06:03:36.058Z,99.90
2019-02-20T06:06:06.412Z,99.90
2019-02-20T06:08:36.788Z,99.90
2019-02-20T06:11:14.489Z,99.90
2019-02-20T06:13:39.784Z,99.90
2019-02-20T06:16:10.137Z,99.90
2019-02-20T06:18:40.544Z,99.90
2019-02-20T06:21:10.905Z,99.90
2019-02-20T06:23:41.285Z,99.90
2019-02-20T06:26:11.665Z,99.90
2019-02-20T06:28:42.110Z,99.90
2019-02-20T06:31:12.459Z,99.90
2019-02-20T06:33:42.836Z,99.90
2019-02-20T06:36:13.197Z,99.90
2019-02-20T06:38:43.643Z,99.90
2019-02-20T06:41:14.055Z,99.90
2019-02-20T06:43:44.413Z,99.90
2019-02-20T06:46:14.793Z,99.90
2019-02-20T06:48:45.142Z,99.90
2019-02-20T06:51:15.521Z,99.90
2019-02-20T06:53:45.902Z,99.90
2019-02-20T06:56:16.383Z,99.90
2019-02-20T06:58:46.754Z,99.90
2019-02-20T07:01:17.120Z,99.90
2019-02-20T07:03:47.505Z,99.90
2019-02-20T07:06:31.404Z,99.90
2019-02-20T07:09:21.067Z,99.90
2019-02-20T07:12:38.718Z,99.90
2019-02-20T07:15:48.621Z,99.90
2019-02-20T07:18:47.081Z,99.90
2019-02-20T07:21:36.816Z,99.90
2019-02-20T07:24:51.626Z,99.90
2019-02-20T07:27:38.374Z,99.90
2019-02-20T07:30:09.978Z,99.90
2019-02-20T07:32:40.336Z,99.90
2019-02-20T07:35:10.740Z,99.90
2019-02-20T07:37:41.160Z,99.90
2019-02-20T07:40:12.041Z,99.90
2019-02-20T07:42:42.391Z,99.90
2019-02-20T07:45:12.897Z,99.90
2019-02-20T07:47:43.256Z,99.90
2019-02-20T07:50:14.534Z,99.90
2019-02-20T07:52:44.894Z,99.90
2019-02-20T07:55:15.277Z,99.90
2019-02-20T07:57:45.641Z,99.90
2019-02-20T08:00:16.183Z,99.90
2019-02-20T08:02:46.544Z,99.90
2019-02-20T08:05:16.954Z,99.90
2019-02-20T08:07:47.316Z,99.50
2019-02-20T08:10:17.708Z,97.80
2019-02-20T08:12:48.066Z,94.30
2019-02-20T08:15:18.459Z,91.50
2019-02-20T08:17:48.832Z,92.00
2019-02-20T08:20:20.294Z,91.90
2019-02-20T08:22:50.747Z,93.50
2019-02-20T08:25:23.028Z,94.30
2019-02-20T08:27:53.197Z,94.40
2019-02-20T08:30:23.592Z,94.80
2019-02-20T08:32:53.952Z,96.50
2019-02-20T08:35:24.357Z,95.80
2019-02-20T08:37:54.709Z,97.90
2019-02-20T08:40:25.095Z,98.90
2019-02-20T08:42:55.466Z,99.70
2019-02-20T08:45:25.870Z,99.90
2019-02-20T08:47:56.223Z,99.90
2019-02-20T08:50:26.607Z,99.90
2019-02-20T08:52:56.969Z,99.90
2019-02-20T08:55:32.018Z,99.90
2019-02-20T08:57:59.418Z,99.90
2019-02-20T09:00:29.807Z,99.90
2019-02-20T09:03:00.170Z,99.90
2019-02-20T09:05:30.645Z,99.90
2019-02-20T09:08:01.008Z,99.90
2019-02-20T09:10:31.398Z,99.90
2019-02-20T09:13:01.754Z,99.90
2019-02-20T09:15:33.099Z,99.90
2019-02-20T09:18:03.462Z,99.90
2019-02-20T09:20:33.845Z,99.90
2019-02-20T09:23:04.197Z,99.90
2019-02-20T09:25:41.390Z,99.90
2019-02-20T09:28:06.641Z,99.90
2019-02-20T09:30:37.010Z,99.90
2019-02-20T09:33:07.361Z,99.90
2019-02-20T09:35:37.738Z,99.90
2019-02-20T09:38:08.101Z,99.90
2019-02-20T09:40:38.487Z,99.90
2019-02-20T09:43:08.848Z,99.90
2019-02-20T09:45:42.205Z,99.90
2019-02-20T09:48:11.311Z,99.90
2019-02-20T09:50:41.695Z,99.70
2019-02-20T09:53:12.055Z,98.60
2019-02-20T09:55:50.903Z,98.40
2019-02-20T09:58:14.513Z,97.90
2019-02-20T10:00:44.897Z,98.80
2019-02-20T10:03:15.257Z,98.30
2019-02-20T10:05:46.630Z,97.10
2019-02-20T10:08:17.000Z,97.50
2019-02-20T10:10:47.387Z,98.20
2019-02-20T10:13:17.751Z,97.40
2019-02-20T10:15:48.143Z,97.00
2019-02-20T10:18:18.517Z,97.00
2019-02-20T10:20:48.907Z,95.70
2019-02-20T10:23:19.281Z,94.00
2019-02-20T10:25:49.670Z,94.30
2019-02-20T10:28:20.050Z,92.30
2019-02-20T10:30:50.434Z,90.10
2019-02-20T10:33:20.802Z,88.00
2019-02-20T10:35:51.195Z,83.20
2019-02-20T10:38:21.561Z,84.60
2019-02-20T10:40:51.955Z,82.20
2019-02-20T10:43:22.324Z,81.20
2019-02-20T10:45:52.715Z,76.20
2019-02-20T10:48:23.155Z,70.50
2019-02-20T10:50:53.571Z,73.40
2019-02-20T10:53:23.943Z,66.20
2019-02-20T10:55:54.339Z,65.30
2019-02-20T10:58:24.884Z,67.20
2019-02-20T11:00:55.279Z,64.60
2019-02-20T11:03:25.647Z,71.80
2019-02-20T11:05:56.045Z,72.50
2019-02-20T11:08:26.424Z,73.60
2019-02-20T11:10:56.805Z,73.30
2019-02-20T11:13:27.170Z,72.60
2019-02-20T11:15:58.899Z,72.40
2019-02-20T11:18:29.322Z,71.80
2019-02-20T11:20:59.707Z,71.60
2019-02-20T11:23:30.072Z,69.20
2019-02-20T11:28:31.687Z,58.40
2019-02-20T11:31:01.997Z,54.80
2019-02-20T11:33:32.369Z,53.40
2019-02-20T11:36:02.754Z,52.60
2019-02-20T11:38:33.118Z,56.70
2019-02-20T11:41:03.878Z,57.60
2019-02-20T11:43:34.248Z,63.40
2019-02-20T11:46:04.649Z,67.20
2019-02-20T11:48:35.018Z,68.80
2019-02-20T11:51:05.407Z,73.60
2019-02-20T11:53:37.465Z,74.10
2019-02-20T11:56:07.943Z,76.10
2019-02-20T11:58:38.306Z,74.30
2019-02-20T12:01:08.703Z,75.60
2019-02-20T12:03:39.238Z,76.40
2019-02-20T12:06:09.637Z,72.70
2019-02-20T12:08:40.004Z,74.80
2019-02-20T12:11:10.398Z,71.80
2019-02-20T12:13:40.757Z,68.00
2019-02-20T12:16:11.236Z,68.50
2019-02-20T12:18:41.606Z,67.80
2019-02-20T12:21:12.010Z,67.30
2019-02-20T12:23:49.675Z,70.10
2019-02-20T12:26:20.051Z,71.90
2019-02-20T12:28:50.418Z,72.30
2019-02-20T12:31:20.973Z,71.90
2019-02-20T12:33:52.280Z,74.60
2019-02-20T12:36:22.806Z,75.80
2019-02-20T12:38:53.176Z,74.80
2019-02-20T12:41:24.543Z,68.80
2019-02-20T12:43:54.978Z,65.60
2019-02-20T12:46:25.370Z,61.80
2019-02-20T12:48:55.731Z,61.40
2019-02-20T12:51:26.118Z,60.50
2019-02-20T12:53:56.489Z,62.90
2019-02-20T12:56:26.880Z,66.60
2019-02-20T12:58:57.265Z,68.70
2019-02-20T13:01:27.648Z,68.00
2019-02-20T13:03:58.025Z,69.50
2019-02-20T13:06:29.773Z,69.70
2019-02-20T13:09:09.692Z,68.80
2019-02-20T13:11:40.085Z,67.80
2019-02-20T13:14:10.453Z,67.20
2019-02-20T13:16:40.916Z,64.40
2019-02-20T13:19:11.293Z,62.90
2019-02-20T13:21:41.681Z,67.40
2019-02-20T13:24:12.047Z,72.20
2019-02-20T13:26:42.440Z,77.00
2019-02-20T13:29:12.815Z,77.20
2019-02-20T13:31:43.261Z,79.40
2019-02-20T13:34:13.586Z,80.50
2019-02-20T13:36:43.981Z,81.60
2019-02-20T13:39:14.348Z,84.20
2019-02-20T13:41:44.742Z,87.10
2019-02-20T13:44:15.111Z,88.50
2019-02-20T13:46:45.531Z,90.00
2019-02-20T13:49:16.178Z,87.90
2019-02-20T13:51:59.709Z,87.50
2019-02-20T13:54:31.048Z,90.80
2019-02-20T13:57:02.314Z,91.60
2019-02-20T13:59:32.871Z,91.30
2019-02-20T14:02:03.259Z,92.60
2019-02-20T14:04:33.628Z,93.00
2019-02-20T14:07:04.063Z,93.60
2019-02-20T14:09:34.390Z,92.30
2019-02-20T14:12:04.789Z,92.50
2019-02-20T14:14:36.989Z,92.70
2019-02-20T14:17:07.386Z,92.80
2019-02-20T14:19:37.752Z,92.80
2019-02-20T14:22:08.165Z,93.60
2019-02-20T14:24:38.532Z,94.80
2019-02-20T14:27:11.083Z,94.70
2019-02-20T14:29:40.995Z,94.30
2019-02-20T14:32:11.390Z,94.00
2019-02-20T14:34:41.770Z,94.30
2019-02-20T14:37:12.429Z,94.40
2019-02-20T14:39:42.790Z,94.20
2019-02-20T14:42:25.759Z,95.50
2019-02-20T14:44:57.867Z,95.70
2019-02-20T14:47:28.414Z,97.00
2019-02-20T14:49:58.782Z,97.20
2019-02-20T14:52:29.174Z,97.20
2019-02-20T14:54:59.924Z,96.90
2019-02-20T14:57:30.334Z,97.50
2019-02-20T15:00:00.742Z,97.80
2019-02-20T15:02:31.514Z,98.00
2019-02-20T15:05:01.892Z,97.10
2019-02-20T15:07:33.871Z,97.00
2019-02-20T15:10:06.444Z,97.70
2019-02-20T15:12:37.995Z,97.20
2019-02-20T15:15:11.904Z,97.90
2019-02-20T15:17:42.359Z,98.40
2019-02-20T15:20:13.699Z,98.70
2019-02-20T15:22:44.094Z,98.50
2019-02-20T15:25:14.469Z,97.90
2019-02-20T15:27:44.873Z,98.30
2019-02-20T15:30:18.319Z,98.70
2019-02-20T15:32:48.707Z,98.70
2019-02-20T15:35:20.770Z,98.90
2019-02-20T15:37:51.159Z,98.90
2019-02-20T15:40:21.521Z,99.20
2019-02-20T15:42:51.928Z,99.80
2019-02-20T15:45:22.284Z,99.60
2019-02-20T15:47:52.674Z,99.60
2019-02-20T15:50:23.041Z,99.70
2019-02-20T15:52:53.437Z,99.50
2019-02-20T15:55:23.877Z,99.60
2019-02-20T15:57:54.361Z,99.90
2019-02-20T16:00:26.328Z,99.90
2019-02-20T16:02:57.094Z,99.90
2019-02-20T16:05:27.454Z,99.90
2019-02-20T16:07:57.856Z,99.90
2019-02-20T16:10:29.254Z,99.90
2019-02-20T16:12:59.651Z,99.90
2019-02-20T16:15:30.117Z,99.90
2019-02-20T16:18:00.682Z,99.90
2019-02-20T16:20:31.228Z,99.90
2019-02-20T16:23:01.625Z,99.90
2019-02-20T16:25:32.028Z,99.90
2019-02-20T16:28:02.494Z,99.90
2019-02-20T16:30:32.854Z,99.90
2019-02-20T16:33:03.250Z,99.90
2019-02-20T16:35:35.498Z,99.90
2019-02-20T16:38:05.924Z,99.90
2019-02-20T16:40:36.287Z,99.90
2019-02-20T16:43:06.851Z,99.90
2019-02-20T16:45:37.589Z,99.90
2019-02-20T16:48:07.980Z,99.90
2019-02-20T16:50:38.336Z,99.90
2019-02-20T16:53:08.724Z,99.90
2019-02-20T16:55:39.102Z,99.90
2019-02-20T16:58:09.469Z,99.90
2019-02-20T17:00:40.576Z,99.90
2019-02-20T17:03:11.204Z,99.90
2019-02-20T17:05:41.575Z,99.90
2019-02-20T17:08:11.952Z,99.90
2019-02-20T17:10:42.310Z,99.90
2019-02-20T17:13:14.466Z,99.90
2019-02-20T17:15:45.254Z,99.90
2019-02-20T17:18:15.723Z,99.90
2019-02-20T17:20:46.073Z,99.90
2019-02-20T17:23:16.469Z,99.90
2019-02-20T17:25:46.826Z,99.90
2019-02-20T17:28:17.310Z,99.90
2019-02-20T17:30:47.731Z,99.90
2019-02-20T17:33:18.116Z,99.90
2019-02-20T17:35:49.549Z,99.90
2019-02-20T17:38:19.937Z,99.90
2019-02-20T17:40:50.667Z,99.90
2019-02-20T17:43:21.052Z,99.90
2019-02-20T17:45:51.405Z,99.90
2019-02-20T17:48:21.951Z,99.90
2019-02-20T17:50:52.310Z,99.90
2019-02-20T17:53:24.575Z,99.90
2019-02-20T17:55:54.951Z,99.90
2019-02-20T17:58:25.337Z,99.90
2019-02-20T18:00:55.869Z,99.90
2019-02-20T18:03:26.263Z,99.90
2019-02-20T18:05:56.619Z,99.90
2019-02-20T18:08:27.018Z,99.90
2019-02-20T18:10:57.361Z,99.90
2019-02-20T18:13:27.795Z,99.90
2019-02-20T18:15:58.216Z,99.90
2019-02-20T18:18:28.574Z,99.90
2019-02-20T18:20:58.968Z,99.90
2019-02-20T18:23:29.327Z,99.90
2019-02-20T18:25:59.713Z,99.90
2019-02-20T18:28:30.075Z,99.90
2019-02-20T18:31:00.458Z,99.90
2019-02-20T18:33:30.821Z,99.90
2019-02-20T18:36:01.228Z,99.90
2019-02-20T18:38:35.273Z,99.90
2019-02-20T18:41:04.677Z,99.90
2019-02-20T18:43:35.040Z,99.90
2019-02-20T18:46:05.431Z,99.90
2019-02-20T18:48:37.446Z,99.90
2019-02-20T18:51:08.940Z,99.90
2019-02-20T18:53:39.437Z,99.90
2019-02-20T18:56:11.551Z,99.90
2019-02-20T18:58:41.913Z,99.90
2019-02-20T19:01:12.305Z,99.90
2019-02-20T19:03:42.658Z,99.90
2019-02-20T19:06:13.068Z,99.90
2019-02-20T19:09:04.843Z,99.90
2019-02-20T19:11:41.545Z,99.90
2019-02-20T19:14:54.950Z,99.90
2019-02-20T19:17:47.911Z,99.90
2019-02-20T19:20:37.995Z,99.90
2019-02-20T19:23:27.411Z,99.90
2019-02-20T19:26:38.971Z,99.90
2019-02-20T19:29:40.820Z,99.90
2019-02-20T19:32:35.319Z,99.90
2019-02-20T19:35:50.617Z,99.90
2019-02-20T19:38:50.202Z,99.90
2019-02-20T19:41:26.466Z,99.90
2019-02-20T19:44:07.421Z,99.90
2019-02-20T19:47:03.609Z,99.90
2019-02-20T19:49:53.660Z,99.90
2019-02-20T19:52:43.417Z,99.90
2019-02-20T19:55:30.092Z,99.90
2019-02-20T19:58:39.576Z,99.90
2019-02-20T20:01:50.907Z,99.90
2019-02-20T20:04:49.386Z,99.90
2019-02-20T20:07:55.963Z,99.90
2019-02-20T20:10:53.413Z,99.90
2019-02-20T20:13:49.250Z,99.90
2019-02-20T20:16:39.064Z,99.90
2019-02-20T20:19:17.695Z,99.90
2019-02-20T20:22:12.020Z,99.90
2019-02-20T20:25:18.076Z,99.90
2019-02-20T20:28:19.448Z,99.90
2019-02-20T20:31:02.838Z,99.90
2019-02-20T20:34:05.025Z,99.90
2019-02-20T20:37:03.016Z,99.90
2019-02-20T20:39:47.954Z,99.90
2019-02-20T20:42:37.209Z,99.90
2019-02-20T20:46:01.714Z,99.90
2019-02-20T20:49:11.054Z,99.90
2019-02-20T20:52:22.469Z,99.90
2019-02-20T20:55:42.329Z,99.90
2019-02-20T20:58:36.817Z,99.90
2019-02-20T21:01:31.318Z,99.90
2019-02-20T21:04:22.801Z,99.90
2019-02-20T21:07:31.281Z,99.90
2019-02-20T21:10:12.073Z,99.90
2019-02-20T21:13:29.769Z,99.90
2019-02-20T21:16:26.249Z,99.90
2019-02-20T21:19:06.885Z,99.90
2019-02-20T21:21:47.521Z,99.90
2019-02-20T21:24:25.189Z,99.90
2019-02-20T21:27:02.579Z,99.90
2019-02-20T21:29:43.305Z,99.90
2019-02-20T21:33:04.912Z,99.90
2019-02-20T21:35:55.486Z,99.90
2019-02-20T21:39:04.953Z,99.90
2019-02-20T21:41:55.932Z,99.90
2019-02-20T21:44:51.406Z,99.90
2019-02-20T21:47:45.734Z,99.90
2019-02-20T21:50:41.376Z,99.90
2019-02-20T21:53:41.993Z,99.90
2019-02-20T21:56:38.457Z,99.90
2019-02-20T21:59:23.414Z,99.90
2019-02-20T22:02:17.937Z,99.90
2019-02-20T22:05:32.048Z,99.90
2019-02-20T22:08:18.791Z,99.90
2019-02-20T22:11:26.958Z,99.90
2019-02-20T22:14:53.159Z,99.90
2019-02-20T22:17:43.349Z,99.90
2019-02-20T22:20:41.996Z,99.90
2019-02-20T22:23:43.685Z,99.90
2019-02-20T22:26:30.706Z,99.90
2019-02-20T22:29:20.402Z,99.90
2019-02-20T22:32:13.072Z,99.90
2019-02-20T22:35:22.373Z,99.90
2019-02-20T22:38:30.093Z,99.90
2019-02-20T22:41:22.886Z,99.90
2019-02-20T22:44:32.859Z,99.90
2019-02-20T22:47:42.380Z,99.90
2019-02-20T22:50:34.821Z,99.90
2019-02-20T22:53:15.693Z,99.90
2019-02-20T22:56:05.564Z,99.90
2019-02-20T22:58:43.197Z,99.90
2019-02-20T23:01:23.997Z,99.90
2019-02-20T23:04:18.571Z,99.90
2019-02-20T23:06:53.628Z,99.90
2019-02-20T23:10:04.826Z,99.90
2019-02-20T23:12:58.932Z,99.90
2019-02-20T23:15:29.354Z,99.90
2019-02-20T23:17:59.721Z,99.90
2019-02-20T23:20:30.081Z,99.90
2019-02-20T23:23:00.461Z,99.90
2019-02-20T23:25:30.824Z,99.90
2019-02-20T23:28:01.214Z,99.90
2019-02-20T23:30:31.565Z,99.90
2019-02-20T23:33:02.022Z,99.90
2019-02-20T23:35:32.372Z,99.90
2019-02-20T23:38:02.757Z,99.90
2019-02-20T23:40:33.117Z,99.90
2019-02-20T23:43:03.500Z,99.90
2019-02-20T23:45:33.858Z,99.90
2019-02-20T23:48:04.245Z,99.90
2019-02-20T23:50:54.915Z,99.90
2019-02-20T23:53:25.294Z,99.90
2019-02-20T23:55:55.661Z,99.90
2019-02-20T23:58:26.049Z,99.90
